Time;durP1;ratioP1;P1;durP2;ratioP2;P2;SDS_P1;SDS_P2;PMS_P1;PMS_P2;Temp;Humidity;BMP_temperature;BMP_pressure;BME280_temperature;BME280_humidity;BME280_pressure;Samples;Min_cycle;Max_cycle;Signal;HPM_P1;HPM_P2
2021/11/15 00:02:14;;;;;;;;;;;7.70;99.90;;;;;;5093082;28;19937;-85
2021/11/15 00:04:39;;;;;;;;;;;7.70;99.90;;;;;;5093107;28;19954;-86
2021/11/15 00:07:05;;;;;;;;;;;7.70;99.90;;;;;;5094528;28;19904;-85
2021/11/15 00:09:30;;;;;;;;;;;7.70;99.90;;;;;;5091718;28;19908;-86
2021/11/15 00:11:56;;;;;;;;;;;7.70;99.90;;;;;;5086490;28;19904;-86
2021/11/15 00:14:22;;;;;;;;;;;7.70;99.90;;;;;;5093058;28;19904;-85
2021/11/15 00:16:48;;;;;;;;;;;7.70;99.90;;;;;;5094235;28;19908;-85
2021/11/15 00:19:14;;;;;;;;;;;7.60;99.90;;;;;;5090400;28;19904;-86
2021/11/15 00:21:40;;;;;;;;;;;7.60;99.90;;;;;;5098166;28;19938;-85
2021/11/15 00:24:05;;;;;;;;;;;7.60;99.90;;;;;;5107015;28;19908;-85
2021/11/15 00:26:31;;;;;;;;;;;7.70;99.90;;;;;;5113062;28;19911;-85
2021/11/15 00:28:58;;;;;;;;;;;7.70;99.90;;;;;;5101228;28;19904;-86
2021/11/15 00:31:24;;;;;;;;;;;7.70;99.90;;;;;;5119464;28;19903;-86
2021/11/15 00:33:50;;;;;;;;;;;7.60;99.90;;;;;;5118660;28;19990;-85
2021/11/15 00:36:16;;;;;;;;;;;7.70;99.90;;;;;;5099786;28;19903;-86
2021/11/15 00:38:42;;;;;;;;;;;7.60;99.90;;;;;;5099676;28;19948;-86
2021/11/15 00:41:08;;;;;;;;;;;7.60;99.90;;;;;;5099874;28;19904;-86
2021/11/15 00:43:33;;;;;;;;;;;7.70;99.90;;;;;;5099567;28;20410;-85
2021/11/15 00:45:59;;;;;;;;;;;7.60;99.90;;;;;;5099646;28;20278;-85
2021/11/15 00:48:24;;;;;;;;;;;7.50;99.90;;;;;;5099580;28;20002;-86
2021/11/15 00:50:50;;;;;;;;;;;7.60;99.90;;;;;;5099731;28;19998;-85
2021/11/15 00:53:16;;;;;;;;;;;7.60;99.90;;;;;;5099500;28;19903;-86
2021/11/15 00:55:41;;;;;;;;;;;7.60;99.90;;;;;;5099547;28;19968;-86
2021/11/15 00:58:07;;;;;;;;;;;7.60;99.90;;;;;;5099273;28;19907;-86
2021/11/15 01:00:35;;;;;;;;;;;7.60;99.90;;;;;;5098806;28;19911;-85
2021/11/15 01:03:06;;;;;;;;;;;7.60;99.90;;;;;;5099394;28;19951;-86
2021/11/15 01:05:31;;;;;;;;;;;7.60;99.90;;;;;;5099558;28;19904;-86
2021/11/15 01:07:57;;;;;;;;;;;7.60;99.90;;;;;;5099227;28;20373;-86
2021/11/15 01:10:23;;;;;;;;;;;7.60;99.90;;;;;;5099262;28;19918;-86
2021/11/15 01:12:48;;;;;;;;;;;7.60;99.90;;;;;;5099277;28;19903;-86
2021/11/15 01:15:16;;;;;;;;;;;7.60;99.90;;;;;;5099146;28;19987;-86
2021/11/15 01:17:41;;;;;;;;;;;7.60;99.90;;;;;;5098572;28;19907;-86
2021/11/15 01:20:08;;;;;;;;;;;7.60;99.90;;;;;;5098972;28;20262;-85
2021/11/15 01:22:34;;;;;;;;;;;7.50;99.90;;;;;;5095482;28;19947;-86
2021/11/15 01:24:59;;;;;;;;;;;7.50;99.90;;;;;;5096879;28;20378;-85
2021/11/15 01:27:25;;;;;;;;;;;7.50;99.90;;;;;;5093246;28;19904;-86
2021/11/15 01:29:52;;;;;;;;;;;7.50;99.90;;;;;;5088356;28;19915;-86
2021/11/15 01:32:17;;;;;;;;;;;7.50;99.90;;;;;;5096068;28;19904;-86
2021/11/15 01:34:43;;;;;;;;;;;7.50;99.90;;;;;;5086605;28;19935;-85
2021/11/15 01:37:08;;;;;;;;;;;7.60;99.90;;;;;;5095203;28;19908;-86
2021/11/15 01:39:34;;;;;;;;;;;7.60;99.90;;;;;;5095230;28;20427;-86
2021/11/15 01:42:00;;;;;;;;;;;7.60;99.90;;;;;;5096723;28;20343;-86
2021/11/15 01:44:26;;;;;;;;;;;7.60;99.90;;;;;;5093223;28;19922;-86
2021/11/15 01:46:51;;;;;;;;;;;7.60;99.90;;;;;;5088182;28;19957;-86
2021/11/15 01:49:17;;;;;;;;;;;7.60;99.90;;;;;;5094600;28;19944;-86
2021/11/15 01:51:43;;;;;;;;;;;7.60;99.90;;;;;;5096155;28;19904;-86
2021/11/15 01:54:09;;;;;;;;;;;7.60;99.90;;;;;;5090812;28;19908;-86
2021/11/15 01:56:34;;;;;;;;;;;7.60;99.90;;;;;;5095027;28;19915;-86
2021/11/15 01:59:01;;;;;;;;;;;7.50;99.90;;;;;;5089358;28;19955;-86
2021/11/15 02:01:27;;;;;;;;;;;7.50;99.90;;;;;;5095137;28;19904;-86
2021/11/15 02:03:52;;;;;;;;;;;7.50;99.90;;;;;;5088189;28;19910;-86
2021/11/15 02:06:18;;;;;;;;;;;7.50;99.90;;;;;;5094225;28;19998;-85
2021/11/15 02:08:44;;;;;;;;;;;7.50;99.90;;;;;;5087047;28;20355;-86
2021/11/15 02:11:09;;;;;;;;;;;7.50;99.90;;;;;;5094609;28;20282;-86
2021/11/15 02:13:35;;;;;;;;;;;7.50;99.90;;;;;;5094973;28;19904;-86
2021/11/15 02:16:00;;;;;;;;;;;7.50;99.90;;;;;;5095820;28;19908;-86
2021/11/15 02:18:26;;;;;;;;;;;7.50;99.90;;;;;;5092319;28;19907;-86
2021/11/15 02:20:56;;;;;;;;;;;7.40;99.90;;;;;;5087259;28;19904;-85
2021/11/15 02:23:23;;;;;;;;;;;7.40;99.90;;;;;;5093869;28;20363;-86
2021/11/15 02:25:50;;;;;;;;;;;7.40;99.90;;;;;;5087064;28;20007;-86
2021/11/15 02:28:16;;;;;;;;;;;7.50;99.90;;;;;;5095320;28;19903;-86
2021/11/15 02:30:42;;;;;;;;;;;7.50;99.90;;;;;;5094990;28;19904;-86
2021/11/15 02:33:09;;;;;;;;;;;7.50;99.90;;;;;;5095986;28;19994;-86
2021/11/15 02:35:36;;;;;;;;;;;7.50;99.90;;;;;;5105944;28;19911;-85
2021/11/15 02:38:01;;;;;;;;;;;7.50;99.90;;;;;;5104280;28;19933;-85
2021/11/15 02:40:27;;;;;;;;;;;7.50;99.90;;;;;;5099688;28;20313;-86
2021/11/15 02:42:53;;;;;;;;;;;7.50;99.90;;;;;;5089223;28;19904;-85
2021/11/15 02:45:19;;;;;;;;;;;7.50;99.90;;;;;;5095885;28;19904;-85
2021/11/15 02:47:45;;;;;;;;;;;7.50;99.90;;;;;;5086601;28;20375;-86
2021/11/15 02:50:14;;;;;;;;;;;7.40;99.90;;;;;;5095789;28;19915;-85
2021/11/15 02:52:47;;;;;;;;;;;7.40;99.90;;;;;;5095255;28;20321;-86
2021/11/15 02:55:12;;;;;;;;;;;7.40;99.90;;;;;;5090223;28;19904;-86
2021/11/15 02:57:38;;;;;;;;;;;7.40;99.90;;;;;;5094235;28;19908;-86
2021/11/15 03:00:14;;;;;;;;;;;7.40;99.90;;;;;;5095196;28;20316;-84
2021/11/15 03:02:39;;;;;;;;;;;7.40;99.90;;;;;;5095213;28;19926;-86
2021/11/15 03:05:05;;;;;;;;;;;7.40;99.90;;;;;;5088864;28;19904;-86
2021/11/15 03:07:31;;;;;;;;;;;7.40;99.90;;;;;;5093861;28;19908;-86
2021/11/15 03:09:56;;;;;;;;;;;7.40;99.90;;;;;;5095405;28;20013;-85
2021/11/15 03:12:30;;;;;;;;;;;7.40;99.90;;;;;;5091458;28;19926;-85
2021/11/15 03:14:55;;;;;;;;;;;7.40;99.90;;;;;;5087604;28;20252;-86
2021/11/15 03:17:21;;;;;;;;;;;7.30;99.90;;;;;;5093083;28;19916;-86
2021/11/15 03:19:46;;;;;;;;;;;7.30;99.90;;;;;;5095109;28;20255;-86
2021/11/15 03:22:12;;;;;;;;;;;7.40;99.90;;;;;;5089564;28;19916;-86
2021/11/15 03:24:38;;;;;;;;;;;7.40;99.90;;;;;;5093748;28;19908;-85
2021/11/15 03:27:03;;;;;;;;;;;7.30;99.90;;;;;;5088341;28;19904;-86
2021/11/15 03:29:29;;;;;;;;;;;7.40;99.90;;;;;;5094954;28;19904;-86
2021/11/15 03:31:54;;;;;;;;;;;7.40;99.90;;;;;;5086743;28;19904;-85
2021/11/15 03:34:20;;;;;;;;;;;7.30;99.90;;;;;;5093484;28;19908;-86
2021/11/15 03:36:46;;;;;;;;;;;7.30;99.90;;;;;;5085871;28;19912;-86
2021/11/15 03:39:13;;;;;;;;;;;7.30;99.90;;;;;;5093668;28;19952;-86
2021/11/15 03:41:39;;;;;;;;;;;7.30;99.90;;;;;;5093583;28;19965;-86
2021/11/15 03:44:05;;;;;;;;;;;7.30;99.90;;;;;;5088615;28;19904;-86
2021/11/15 03:46:32;;;;;;;;;;;7.30;99.90;;;;;;5093562;28;20361;-86
2021/11/15 03:48:58;;;;;;;;;;;7.30;99.90;;;;;;5087048;28;19918;-85
2021/11/15 03:51:24;;;;;;;;;;;7.30;99.90;;;;;;5095120;28;19991;-85
2021/11/15 03:53:49;;;;;;;;;;;7.30;99.90;;;;;;5098094;28;19904;-86
2021/11/15 03:56:16;;;;;;;;;;;7.30;99.90;;;;;;5094271;28;19904;-86
2021/11/15 03:58:43;;;;;;;;;;;7.40;99.90;;;;;;5098211;28;20323;-85
2021/11/15 04:01:09;;;;;;;;;;;7.30;99.90;;;;;;5098300;28;19926;-86
2021/11/15 04:03:37;;;;;;;;;;;7.30;99.90;;;;;;5098309;28;19904;-86
2021/11/15 04:06:14;;;;;;;;;;;7.40;99.90;;;;;;5098706;28;19914;-86
2021/11/15 04:08:39;;;;;;;;;;;7.40;99.90;;;;;;5097851;28;19904;-86
2021/11/15 04:11:06;;;;;;;;;;;7.40;99.90;;;;;;5092076;28;19957;-86
2021/11/15 04:13:36;;;;;;;;;;;7.30;99.90;;;;;;5097192;28;19911;-85
2021/11/15 04:16:04;;;;;;;;;;;7.40;99.90;;;;;;5091531;28;19926;-86
2021/11/15 04:18:31;;;;;;;;;;;7.30;99.90;;;;;;5097035;28;19908;-85
2021/11/15 04:20:59;;;;;;;;;;;7.40;99.90;;;;;;5090602;28;19911;-86
2021/11/15 04:23:25;;;;;;;;;;;7.40;99.90;;;;;;5096630;28;19912;-85
2021/11/15 04:25:51;;;;;;;;;;;7.30;99.90;;;;;;5089513;28;20278;-85
2021/11/15 04:28:17;;;;;;;;;;;7.20;99.90;;;;;;5096424;28;19904;-86
2021/11/15 04:30:43;;;;;;;;;;;7.30;99.90;;;;;;5087956;28;20366;-86
2021/11/15 04:33:08;;;;;;;;;;;7.30;99.90;;;;;;5097878;28;19967;-86
2021/11/15 04:35:34;;;;;;;;;;;7.20;99.90;;;;;;5095485;28;19904;-85
2021/11/15 04:38:00;;;;;;;;;;;7.20;99.90;;;;;;5090544;28;19936;-85
2021/11/15 04:40:26;;;;;;;;;;;7.20;99.90;;;;;;5097806;28;19904;-86
2021/11/15 04:42:52;;;;;;;;;;;7.20;99.90;;;;;;5089218;28;19904;-86
2021/11/15 04:45:17;;;;;;;;;;;7.20;99.90;;;;;;5096479;28;19918;-86
2021/11/15 04:47:43;;;;;;;;;;;7.20;99.90;;;;;;5087987;28;19904;-86
2021/11/15 04:50:10;;;;;;;;;;;7.20;99.90;;;;;;5104012;28;19904;-84
2021/11/15 04:52:35;;;;;;;;;;;7.20;99.90;;;;;;5111303;28;19910;-85
2021/11/15 04:55:03;;;;;;;;;;;7.20;99.90;;;;;;5105850;28;19978;-86
2021/11/15 04:57:29;;;;;;;;;;;7.20;99.90;;;;;;5096103;28;19907;-85
2021/11/15 04:59:54;;;;;;;;;;;7.30;99.90;;;;;;5090118;28;20351;-85
2021/11/15 05:02:20;;;;;;;;;;;7.20;99.90;;;;;;5097061;28;20077;-86
2021/11/15 05:04:45;;;;;;;;;;;7.20;99.90;;;;;;5087723;28;19910;-85
2021/11/15 05:07:11;;;;;;;;;;;7.20;99.90;;;;;;5095805;28;19911;-86
2021/11/15 05:09:37;;;;;;;;;;;7.20;99.90;;;;;;5096313;28;19980;-86
2021/11/15 05:12:03;;;;;;;;;;;7.20;99.90;;;;;;5090835;28;20351;-86
2021/11/15 05:14:29;;;;;;;;;;;7.20;99.90;;;;;;5095725;28;20280;-86
2021/11/15 05:16:54;;;;;;;;;;;7.20;99.90;;;;;;5089100;28;19912;-85
2021/11/15 05:19:20;;;;;;;;;;;7.20;99.90;;;;;;5095558;28;19904;-85
2021/11/15 05:21:46;;;;;;;;;;;7.20;99.90;;;;;;5089619;28;19908;-86
2021/11/15 05:24:12;;;;;;;;;;;7.20;99.90;;;;;;5099242;28;19908;-86
2021/11/15 05:26:37;;;;;;;;;;;7.20;99.90;;;;;;5099072;28;19911;-86
2021/11/15 05:29:03;;;;;;;;;;;7.20;99.90;;;;;;5099142;28;19918;-85
2021/11/15 05:31:32;;;;;;;;;;;7.30;99.90;;;;;;5117012;28;19910;-86
2021/11/15 05:33:58;;;;;;;;;;;7.20;99.90;;;;;;5098710;28;19903;-85
2021/11/15 05:36:23;;;;;;;;;;;7.20;99.90;;;;;;5098620;28;19949;-85
2021/11/15 05:38:49;;;;;;;;;;;7.20;99.90;;;;;;5116828;28;19911;-86
2021/11/15 05:41:15;;;;;;;;;;;7.20;99.90;;;;;;5098712;28;19908;-85
2021/11/15 05:43:40;;;;;;;;;;;7.20;99.90;;;;;;5117152;28;19908;-85
2021/11/15 05:46:06;;;;;;;;;;;7.20;99.90;;;;;;5098258;28;19908;-85
2021/11/15 05:48:31;;;;;;;;;;;7.20;99.90;;;;;;5098054;28;20412;-85
2021/11/15 05:50:57;;;;;;;;;;;7.20;99.90;;;;;;5098185;28;19904;-85
2021/11/15 05:53:22;;;;;;;;;;;7.20;99.90;;;;;;5098201;28;19965;-85
2021/11/15 05:55:48;;;;;;;;;;;7.20;99.90;;;;;;5116529;28;19903;-86
2021/11/15 05:58:14;;;;;;;;;;;7.20;99.90;;;;;;5098225;28;19919;-86
2021/11/15 06:00:40;;;;;;;;;;;7.20;99.90;;;;;;5098234;28;19903;-86
2021/11/15 06:03:05;;;;;;;;;;;7.10;99.90;;;;;;5097992;28;19904;-86
2021/11/15 06:05:31;;;;;;;;;;;7.10;99.90;;;;;;5098476;28;20278;-86
2021/11/15 06:07:56;;;;;;;;;;;7.10;99.90;;;;;;5098259;28;19957;-85
2021/11/15 06:10:22;;;;;;;;;;;7.20;99.90;;;;;;5116326;28;19903;-85
2021/11/15 06:12:49;;;;;;;;;;;7.20;99.90;;;;;;5098247;28;19904;-86
2021/11/15 06:15:15;;;;;;;;;;;7.10;99.90;;;;;;5098249;28;19907;-86
2021/11/15 06:17:41;;;;;;;;;;;7.10;99.90;;;;;;5097154;28;20261;-84
2021/11/15 06:20:08;;;;;;;;;;;7.10;99.90;;;;;;5115936;28;19984;-86
2021/11/15 06:22:34;;;;;;;;;;;7.20;99.90;;;;;;5094220;28;19912;-86
2021/11/15 06:24:59;;;;;;;;;;;7.20;99.90;;;;;;5089130;28;19943;-86
2021/11/15 06:27:25;;;;;;;;;;;7.10;99.90;;;;;;5094844;28;19982;-86
2021/11/15 06:29:50;;;;;;;;;;;7.10;99.90;;;;;;5087253;28;19957;-86
2021/11/15 06:32:16;;;;;;;;;;;7.10;99.90;;;;;;5094025;28;19947;-86
2021/11/15 06:34:42;;;;;;;;;;;7.10;99.90;;;;;;5095431;28;20355;-85
2021/11/15 06:37:08;;;;;;;;;;;7.10;99.90;;;;;;5089582;28;19919;-86
2021/11/15 06:39:34;;;;;;;;;;;7.10;99.90;;;;;;5094264;28;19950;-86
2021/11/15 06:41:59;;;;;;;;;;;7.20;99.90;;;;;;5088537;28;19904;-86
2021/11/15 06:44:26;;;;;;;;;;;7.20;99.90;;;;;;5094985;28;19911;-86
2021/11/15 06:46:52;;;;;;;;;;;7.10;99.90;;;;;;5088160;28;19904;-85
2021/11/15 06:49:18;;;;;;;;;;;7.10;99.90;;;;;;5094815;28;19907;-86
2021/11/15 06:51:44;;;;;;;;;;;7.10;99.90;;;;;;5095911;28;19911;-87
2021/11/15 06:54:10;;;;;;;;;;;7.00;99.90;;;;;;5090392;28;19904;-86
2021/11/15 06:56:35;;;;;;;;;;;7.00;99.90;;;;;;5096777;28;20427;-85
2021/11/15 06:59:01;;;;;;;;;;;7.00;99.90;;;;;;5105046;28;19975;-86
2021/11/15 07:01:27;;;;;;;;;;;7.00;99.90;;;;;;5114630;28;19904;-85
2021/11/15 07:03:53;;;;;;;;;;;7.00;99.90;;;;;;5093185;28;19904;-87
2021/11/15 07:06:18;;;;;;;;;;;7.00;99.90;;;;;;5097086;28;19908;-87
2021/11/15 07:08:44;;;;;;;;;;;7.00;99.90;;;;;;5096857;28;19955;-87
2021/11/15 07:11:09;;;;;;;;;;;7.10;99.90;;;;;;5092751;28;19904;-86
2021/11/15 07:13:35;;;;;;;;;;;7.00;99.90;;;;;;5097747;28;19904;-87
2021/11/15 07:16:01;;;;;;;;;;;7.00;99.90;;;;;;5091164;28;19915;-87
2021/11/15 07:18:28;;;;;;;;;;;7.00;99.90;;;;;;5095720;28;19914;-87
2021/11/15 07:20:54;;;;;;;;;;;7.00;99.90;;;;;;5096648;28;20363;-87
2021/11/15 07:23:20;;;;;;;;;;;6.90;99.90;;;;;;5091945;28;19912;-86
2021/11/15 07:25:45;;;;;;;;;;;7.00;99.90;;;;;;5088308;28;19950;-86
2021/11/15 07:28:11;;;;;;;;;;;7.00;99.90;;;;;;5098361;28;19912;-86
2021/11/15 07:30:38;;;;;;;;;;;7.00;99.90;;;;;;5101302;28;20003;-86
2021/11/15 07:33:05;;;;;;;;;;;7.10;99.90;;;;;;5095304;28;19904;-86
2021/11/15 07:35:30;;;;;;;;;;;7.00;99.90;;;;;;5101111;28;20352;-86
2021/11/15 07:37:56;;;;;;;;;;;7.00;99.90;;;;;;5094679;28;19912;-86
2021/11/15 07:40:22;;;;;;;;;;;7.00;99.90;;;;;;5099940;28;19939;-87
2021/11/15 07:42:48;;;;;;;;;;;7.10;99.90;;;;;;5102961;28;19925;-87
2021/11/15 07:45:15;;;;;;;;;;;7.10;99.90;;;;;;5098567;28;20316;-87
2021/11/15 07:47:40;;;;;;;;;;;7.00;99.90;;;;;;5099302;28;20409;-86
2021/11/15 07:50:06;;;;;;;;;;;7.00;99.90;;;;;;5098923;28;19979;-86
2021/11/15 07:52:32;;;;;;;;;;;7.00;99.90;;;;;;5100358;28;19953;-87
2021/11/15 07:55:01;;;;;;;;;;;7.00;99.90;;;;;;5102230;28;19915;-87
2021/11/15 07:57:26;;;;;;;;;;;7.10;99.90;;;;;;5096701;28;19915;-87
2021/11/15 07:59:53;;;;;;;;;;;7.10;99.90;;;;;;5099666;28;20313;-87
2021/11/15 08:02:18;;;;;;;;;;;7.10;99.90;;;;;;5095096;28;19986;-86
2021/11/15 08:04:46;;;;;;;;;;;7.10;99.90;;;;;;5090459;28;19942;-87
2021/11/15 08:07:12;;;;;;;;;;;7.10;99.90;;;;;;5098377;28;19915;-87
2021/11/15 08:09:38;;;;;;;;;;;7.10;99.90;;;;;;5098462;28;19908;-86
2021/11/15 08:12:06;;;;;;;;;;;7.10;99.90;;;;;;5092727;28;19957;-87
2021/11/15 08:14:33;;;;;;;;;;;7.20;99.90;;;;;;5097349;28;20362;-86
2021/11/15 08:16:58;;;;;;;;;;;7.20;99.90;;;;;;5101353;28;19930;-87
2021/11/15 08:19:24;;;;;;;;;;;7.20;99.90;;;;;;5099308;28;19904;-86
2021/11/15 08:21:50;;;;;;;;;;;7.20;99.90;;;;;;5096875;28;19908;-86
2021/11/15 08:24:25;;;;;;;;;;;7.20;99.90;;;;;;5102138;28;19896;-87
2021/11/15 08:27:01;;;;;;;;;;;7.20;99.90;;;;;;5119505;28;19918;-87
2021/11/15 08:29:27;;;;;;;;;;;7.10;99.90;;;;;;5105090;28;19908;-86
2021/11/15 08:31:54;;;;;;;;;;;7.10;99.90;;;;;;5106028;28;19919;-86
2021/11/15 08:34:20;;;;;;;;;;;7.10;99.90;;;;;;5102487;28;19904;-86
2021/11/15 08:36:46;;;;;;;;;;;7.10;99.90;;;;;;5120288;28;19911;-86
2021/11/15 08:39:14;;;;;;;;;;;7.10;99.90;;;;;;5105558;28;20374;-88
2021/11/15 08:41:45;;;;;;;;;;;7.00;99.90;;;;;;5103740;28;19956;-87
2021/11/15 08:44:10;;;;;;;;;;;7.10;99.90;;;;;;5102753;28;20008;-87
2021/11/15 08:46:36;;;;;;;;;;;7.10;99.90;;;;;;5103378;28;19888;-87
2021/11/15 08:49:07;;;;;;;;;;;7.10;99.90;;;;;;5103439;28;19904;-87
2021/11/15 08:51:35;;;;;;;;;;;7.10;99.90;;;;;;5101644;28;19904;-88
2021/11/15 08:54:00;;;;;;;;;;;7.10;99.90;;;;;;5103199;28;19904;-87
2021/11/15 08:56:26;;;;;;;;;;;7.10;99.90;;;;;;5105278;28;19969;-87
2021/11/15 08:58:52;;;;;;;;;;;7.10;99.90;;;;;;5105621;28;19903;-87
2021/11/15 09:01:18;;;;;;;;;;;7.10;99.90;;;;;;5104257;28;19904;-87
2021/11/15 09:03:44;;;;;;;;;;;7.20;99.90;;;;;;5127125;28;19891;-86
2021/11/15 09:06:11;;;;;;;;;;;7.20;99.90;;;;;;5122243;28;19903;-87
2021/11/15 09:08:37;;;;;;;;;;;7.20;99.90;;;;;;5115569;28;19911;-87
2021/11/15 09:11:03;;;;;;;;;;;7.20;99.90;;;;;;5105200;28;19904;-88
2021/11/15 09:13:29;;;;;;;;;;;7.20;99.90;;;;;;5103094;28;20010;-87
2021/11/15 09:15:54;;;;;;;;;;;7.20;99.90;;;;;;5120172;28;19987;-88
2021/11/15 09:18:20;;;;;;;;;;;7.10;99.90;;;;;;5101145;28;19919;-87
2021/11/15 09:20:46;;;;;;;;;;;7.10;99.90;;;;;;5100908;28;19895;-87
2021/11/15 09:23:11;;;;;;;;;;;7.10;99.90;;;;;;5100133;28;20263;-88
2021/11/15 09:25:39;;;;;;;;;;;7.10;99.90;;;;;;5117554;28;20355;-87
2021/11/15 09:28:05;;;;;;;;;;;7.20;99.90;;;;;;5118532;28;19941;-88
2021/11/15 09:30:30;;;;;;;;;;;7.20;99.90;;;;;;5118674;28;19957;-89
2021/11/15 09:32:56;;;;;;;;;;;7.20;99.90;;;;;;5101984;28;19907;-88
2021/11/15 09:35:22;;;;;;;;;;;7.20;99.90;;;;;;5102452;28;19903;-88
2021/11/15 09:37:47;;;;;;;;;;;7.30;99.90;;;;;;5101339;28;19911;-90
2021/11/15 09:40:13;;;;;;;;;;;7.30;99.90;;;;;;5102877;28;19903;-88
2021/11/15 09:42:39;;;;;;;;;;;7.20;99.90;;;;;;5101125;28;19911;-87
2021/11/15 09:45:07;;;;;;;;;;;7.30;99.90;;;;;;5101185;28;19904;-87
2021/11/15 09:47:33;;;;;;;;;;;7.30;99.90;;;;;;5100198;28;19904;-86
2021/11/15 09:49:59;;;;;;;;;;;7.20;99.90;;;;;;5100074;28;19904;-86
2021/11/15 09:52:25;;;;;;;;;;;7.20;99.90;;;;;;5100590;28;19939;-87
2021/11/15 09:54:51;;;;;;;;;;;7.30;99.90;;;;;;5100255;28;19953;-86
2021/11/15 09:57:18;;;;;;;;;;;7.20;99.90;;;;;;5099396;28;19951;-87
2021/11/15 09:59:44;;;;;;;;;;;7.20;99.90;;;;;;5099731;28;19903;-86
2021/11/15 10:02:10;;;;;;;;;;;7.20;99.90;;;;;;5101875;28;19903;-86
2021/11/15 10:04:36;;;;;;;;;;;7.20;99.90;;;;;;5103995;28;19911;-89
2021/11/15 10:07:03;;;;;;;;;;;7.20;99.90;;;;;;5100555;28;19907;-87
2021/11/15 10:09:33;;;;;;;;;;;7.30;99.90;;;;;;5099420;28;19933;-87
2021/11/15 10:12:00;;;;;;;;;;;7.20;99.90;;;;;;5100247;28;19919;-89
2021/11/15 10:14:26;;;;;;;;;;;7.20;99.90;;;;;;5120123;28;19903;-89
2021/11/15 10:16:58;;;;;;;;;;;7.30;99.90;;;;;;5103125;28;19912;-88
2021/11/15 10:19:24;;;;;;;;;;;7.30;99.90;;;;;;5101615;28;19904;-88
2021/11/15 10:21:51;;;;;;;;;;;7.30;99.90;;;;;;5100795;28;19952;-88
2021/11/15 10:24:19;;;;;;;;;;;7.20;99.90;;;;;;5118898;28;19999;-87
2021/11/15 10:26:57;;;;;;;;;;;7.10;99.90;;;;;;5101522;28;19910;-87
2021/11/15 10:29:34;;;;;;;;;;;7.20;99.90;;;;;;5102638;28;19972;-86
2021/11/15 10:32:02;;;;;;;;;;;7.30;99.90;;;;;;5100350;28;19904;-86
2021/11/15 10:34:29;;;;;;;;;;;7.30;99.90;;;;;;5101276;28;19904;-89
2021/11/15 10:37:00;;;;;;;;;;;7.30;99.90;;;;;;5099553;28;19911;-87
2021/11/15 10:39:31;;;;;;;;;;;7.20;99.90;;;;;;5118038;28;19904;-87
2021/11/15 10:42:26;;;;;;;;;;;7.20;99.90;;;;;;5102854;28;20334;-87
2021/11/15 10:45:04;;;;;;;;;;;7.20;99.90;;;;;;5096009;28;19904;-88
2021/11/15 10:47:36;;;;;;;;;;;7.20;99.90;;;;;;5100012;28;19904;-87
2021/11/15 10:50:04;;;;;;;;;;;7.20;99.90;;;;;;5118015;28;20259;-88
2021/11/15 10:52:33;;;;;;;;;;;7.30;99.90;;;;;;5104034;28;19910;-89
2021/11/15 10:55:02;;;;;;;;;;;7.30;99.90;;;;;;5100788;28;19915;-86
2021/11/15 10:57:28;;;;;;;;;;;7.30;99.90;;;;;;5100318;28;19908;-86
2021/11/15 11:00:11;;;;;;;;;;;7.30;99.90;;;;;;5100552;28;19957;-87
2021/11/15 11:02:38;;;;;;;;;;;7.30;99.90;;;;;;5118253;28;19907;-87
2021/11/15 11:05:14;;;;;;;;;;;7.40;99.90;;;;;;5097997;28;19911;-86
2021/11/15 11:07:41;;;;;;;;;;;7.30;99.90;;;;;;5117245;28;19909;-87
2021/11/15 11:10:08;;;;;;;;;;;7.30;99.90;;;;;;5119901;28;19908;-86
2021/11/15 11:12:40;;;;;;;;;;;7.20;99.90;;;;;;5100976;28;19946;-88
2021/11/15 11:15:18;;;;;;;;;;;7.20;99.90;;;;;;5099090;28;19903;-88
2021/11/15 11:17:58;;;;;;;;;;;7.20;99.90;;;;;;5098797;28;19933;-88
2021/11/15 11:23:18;;;;;;;;;;;7.20;99.90;;;;;;5116104;28;19918;-88
2021/11/15 11:25:44;;;;;;;;;;;7.10;99.90;;;;;;5098514;28;19903;-87
2021/11/15 11:28:28;;;;;;;;;;;7.20;99.90;;;;;;5098769;28;20340;-88
2021/11/15 11:30:55;;;;;;;;;;;7.30;99.90;;;;;;5098426;28;19959;-88
2021/11/15 11:33:20;;;;;;;;;;;7.30;99.90;;;;;;5098674;28;19907;-87
2021/11/15 11:35:47;;;;;;;;;;;7.30;99.90;;;;;;5097634;28;19953;-87
2021/11/15 11:38:13;;;;;;;;;;;7.30;99.90;;;;;;5101673;28;20432;-87
2021/11/15 11:40:40;;;;;;;;;;;7.30;99.90;;;;;;5100296;28;19903;-87
2021/11/15 11:43:06;;;;;;;;;;;7.20;99.90;;;;;;5100246;28;19911;-87
2021/11/15 11:45:31;;;;;;;;;;;7.20;99.90;;;;;;5100001;28;19908;-87
2021/11/15 11:47:57;;;;;;;;;;;7.20;99.90;;;;;;5118122;28;19904;-87
2021/11/15 11:50:23;;;;;;;;;;;7.20;99.90;;;;;;5099768;28;20300;-88
2021/11/15 11:53:02;;;;;;;;;;;7.10;99.90;;;;;;5098222;28;19930;-87
2021/11/15 11:55:31;;;;;;;;;;;7.10;99.90;;;;;;5098340;28;20256;-87
2021/11/15 11:57:57;;;;;;;;;;;7.00;99.90;;;;;;5098848;28;19922;-87
2021/11/15 12:00:23;;;;;;;;;;;7.10;99.90;;;;;;5117305;28;19994;-88
2021/11/15 12:02:49;;;;;;;;;;;7.20;99.90;;;;;;5098081;28;20404;-87
2021/11/15 12:05:18;;;;;;;;;;;7.20;99.90;;;;;;5098165;28;20377;-85
2021/11/15 12:07:55;;;;;;;;;;;7.20;99.90;;;;;;5101903;28;19975;-87
2021/11/15 12:10:36;;;;;;;;;;;7.20;99.90;;;;;;5101914;28;19896;-89
2021/11/15 12:13:04;;;;;;;;;;;7.10;99.90;;;;;;5100299;28;20065;-87
2021/11/15 12:15:42;;;;;;;;;;;7.20;99.90;;;;;;5101875;28;19918;-86
2021/11/15 12:18:14;;;;;;;;;;;7.20;99.90;;;;;;5103796;28;19935;-88
2021/11/15 12:20:58;;;;;;;;;;;7.20;99.90;;;;;;5105544;28;20317;-87
2021/11/15 12:23:23;;;;;;;;;;;7.20;99.90;;;;;;5102859;28;19911;-88
2021/11/15 12:26:03;;;;;;;;;;;7.20;99.90;;;;;;5119812;28;20243;-88
2021/11/15 12:28:34;;;;;;;;;;;7.30;99.90;;;;;;5102986;28;19903;-88
2021/11/15 12:31:00;;;;;;;;;;;7.30;99.90;;;;;;5102567;28;19942;-89
2021/11/15 12:33:30;;;;;;;;;;;7.30;99.90;;;;;;5103573;28;19911;-88
2021/11/15 12:36:05;;;;;;;;;;;7.30;99.90;;;;;;5102139;28;19903;-88
2021/11/15 12:38:36;;;;;;;;;;;7.30;99.90;;;;;;5121706;28;19937;-86
2021/11/15 12:41:23;;;;;;;;;;;7.20;99.90;;;;;;5102191;28;19914;-87
2021/11/15 12:43:49;;;;;;;;;;;7.20;99.90;;;;;;5085997;28;19904;-86
2021/11/15 12:46:18;;;;;;;;;;;7.20;99.90;;;;;;5118992;28;19949;-85
2021/11/15 12:48:46;;;;;;;;;;;7.30;99.90;;;;;;5119026;28;19903;-86
2021/11/15 12:51:20;;;;;;;;;;;7.30;99.90;;;;;;5101087;28;19943;-86
2021/11/15 12:53:52;;;;;;;;;;;7.20;99.90;;;;;;5120253;28;19904;-87
2021/11/15 12:56:28;;;;;;;;;;;7.20;99.90;;;;;;5100623;28;19950;-87
2021/11/15 12:58:55;;;;;;;;;;;7.20;99.90;;;;;;5118926;28;19908;-86
2021/11/15 13:01:21;;;;;;;;;;;7.20;99.90;;;;;;5100990;28;19910;-87
2021/11/15 13:03:48;;;;;;;;;;;7.20;99.90;;;;;;5100587;28;19903;-87
2021/11/15 13:06:14;;;;;;;;;;;7.30;99.90;;;;;;5120414;28;19903;-87
2021/11/15 13:08:44;;;;;;;;;;;7.30;99.90;;;;;;5106764;28;19904;-87
2021/11/15 13:11:10;;;;;;;;;;;7.40;99.90;;;;;;5120078;28;19939;-85
2021/11/15 13:13:36;;;;;;;;;;;7.30;99.90;;;;;;5134692;28;19971;-83
2021/11/15 13:16:02;;;;;;;;;;;7.30;99.90;;;;;;5084120;28;19963;-86
2021/11/15 13:18:27;;;;;;;;;;;7.30;99.90;;;;;;5079484;28;19908;-87
2021/11/15 13:20:53;;;;;;;;;;;7.30;99.90;;;;;;5059840;28;19904;-88
2021/11/15 13:23:19;;;;;;;;;;;7.30;99.90;;;;;;5057773;28;20441;-88
2021/11/15 13:25:45;;;;;;;;;;;7.30;99.90;;;;;;5073146;28;19939;-87
2021/11/15 13:28:10;;;;;;;;;;;7.40;99.90;;;;;;5056529;28;19908;-87
2021/11/15 13:30:36;;;;;;;;;;;7.30;99.90;;;;;;5056499;28;19978;-87
2021/11/15 13:33:02;;;;;;;;;;;7.40;99.90;;;;;;5056510;28;19908;-87
2021/11/15 13:35:28;;;;;;;;;;;7.40;99.90;;;;;;5056364;28;20430;-87
2021/11/15 13:37:59;;;;;;;;;;;7.30;99.90;;;;;;5056234;28;20014;-87
2021/11/15 13:40:26;;;;;;;;;;;7.30;99.90;;;;;;5073194;28;19916;-87
2021/11/15 13:42:52;;;;;;;;;;;7.30;99.90;;;;;;5056440;28;20003;-87
2021/11/15 13:45:18;;;;;;;;;;;7.30;99.90;;;;;;5056434;28;19904;-87
2021/11/15 13:47:45;;;;;;;;;;;7.30;99.90;;;;;;5056406;28;20316;-87
2021/11/15 13:50:11;;;;;;;;;;;7.20;99.90;;;;;;5072990;28;19912;-87
2021/11/15 13:52:36;;;;;;;;;;;7.20;99.90;;;;;;5079378;28;19907;-87
2021/11/15 13:55:02;;;;;;;;;;;7.20;99.90;;;;;;5097545;28;19904;-87
2021/11/15 13:57:29;;;;;;;;;;;7.20;99.90;;;;;;5097129;28;19907;-87
2021/11/15 13:59:55;;;;;;;;;;;7.30;99.90;;;;;;5097330;28;20327;-87
2021/11/15 14:02:21;;;;;;;;;;;7.20;99.90;;;;;;5115666;28;19947;-87
2021/11/15 14:04:47;;;;;;;;;;;7.20;99.90;;;;;;5097447;28;20287;-87
2021/11/15 14:07:15;;;;;;;;;;;7.20;99.90;;;;;;5097448;28;19904;-87
2021/11/15 14:09:41;;;;;;;;;;;7.20;99.90;;;;;;5097812;28;19954;-87
2021/11/15 14:12:06;;;;;;;;;;;7.10;99.90;;;;;;5097967;28;20350;-87
2021/11/15 14:14:33;;;;;;;;;;;7.10;99.90;;;;;;5097268;28;19908;-87
2021/11/15 14:16:58;;;;;;;;;;;7.10;99.90;;;;;;5115109;28;19911;-87
2021/11/15 14:19:24;;;;;;;;;;;7.10;99.90;;;;;;5096919;28;19953;-87
2021/11/15 14:21:49;;;;;;;;;;;7.20;99.90;;;;;;5096595;28;19958;-87
2021/11/15 14:24:15;;;;;;;;;;;7.20;99.90;;;;;;5096741;28;20351;-87
2021/11/15 14:26:41;;;;;;;;;;;7.10;99.90;;;;;;5096508;28;20355;-87
2021/11/15 14:29:06;;;;;;;;;;;7.20;99.90;;;;;;5114689;28;19903;-88
2021/11/15 14:31:32;;;;;;;;;;;7.20;99.90;;;;;;5096437;28;20270;-87
2021/11/15 14:33:57;;;;;;;;;;;7.20;99.90;;;;;;5114634;28;19903;-87